Time;durP1;ratioP1;P1;durP2;ratioP2;P2;SDS_P1;SDS_P2;PMS_P1;PMS_P2;Temp;Humidity;BMP_temperature;BMP_pressure;BME280_temperature;BME280_humidity;BME280_pressure;Samples;Min_cycle;Max_cycle;Signal;HPM_P1;HPM_P2
2023/12/03 00:01:55;;;;;;;47.07;37.10;;;0.40;94.80;;;;;;5094717;28;20449;-74
2023/12/03 00:04:23;;;;;;;45.60;37.23;;;0.40;95.70;;;;;;5108813;28;20480;-74
2023/12/03 00:06:52;;;;;;;46.37;38.67;;;0.40;96.00;;;;;;5094615;28;20451;-74
2023/12/03 00:09:19;;;;;;;50.77;44.97;;;0.40;96.50;;;;;;5099907;28;20540;-74
2023/12/03 00:11:46;;;;;;;48.70;43.97;;;0.40;96.90;;;;;;5094400;28;21007;-74
2023/12/03 00:14:13;;;;;;;59.07;53.30;;;0.40;97.60;;;;;;5105376;28;20472;-74
2023/12/03 00:16:39;;;;;;;62.73;56.57;;;0.40;97.60;;;;;;5113557;28;20468;-74
2023/12/03 00:19:06;;;;;;;73.73;67.13;;;0.30;97.60;;;;;;5103121;28;20537;-74
2023/12/03 00:21:33;;;;;;;84.47;78.27;;;0.30;98.60;;;;;;5094190;28;20528;-74
2023/12/03 00:24:01;;;;;;;82.27;76.40;;;0.30;99.00;;;;;;5105177;28;20468;-74
2023/12/03 00:26:28;;;;;;;86.40;79.70;;;0.30;99.20;;;;;;5110347;28;20481;-74
2023/12/03 00:28:55;;;;;;;105.87;98.37;;;0.30;99.20;;;;;;5101851;28;20498;-74
2023/12/03 00:31:22;;;;;;;103.53;96.83;;;0.30;99.90;;;;;;5114650;28;20505;-74
2023/12/03 00:33:48;;;;;;;109.23;102.37;;;0.30;99.90;;;;;;5105025;28;20456;-74
2023/12/03 00:36:15;;;;;;;125.97;117.87;;;0.30;99.90;;;;;;5105589;28;20440;-73
2023/12/03 00:38:42;;;;;;;132.70;124.67;;;0.30;99.90;;;;;;5095039;28;20441;-74
2023/12/03 00:41:10;;;;;;;153.60;144.90;;;0.40;99.90;;;;;;5105651;28;20437;-74
2023/12/03 00:43:37;;;;;;;144.97;136.37;;;0.40;99.90;;;;;;5102068;28;20901;-74
2023/12/03 00:46:05;;;;;;;156.77;148.57;;;0.40;99.90;;;;;;5106786;28;20482;-74
2023/12/03 00:48:32;;;;;;;155.90;147.23;;;0.50;99.90;;;;;;5101642;28;20467;-74
2023/12/03 00:50:59;;;;;;;148.10;139.60;;;0.50;99.90;;;;;;5103778;28;20864;-74
2023/12/03 00:53:26;;;;;;;136.80;128.90;;;0.50;99.90;;;;;;5113283;28;20445;-74
2023/12/03 00:55:54;;;;;;;115.23;107.43;;;0.60;99.90;;;;;;5104784;28;20447;-74
2023/12/03 00:58:22;;;;;;;109.87;103.07;;;0.60;99.90;;;;;;5110230;28;20454;-74
2023/12/03 01:00:49;;;;;;;104.10;96.60;;;0.70;99.90;;;;;;5099461;28;20444;-74
2023/12/03 01:03:16;;;;;;;91.53;85.23;;;0.70;99.70;;;;;;5110670;28;20547;-74
2023/12/03 01:05:43;;;;;;;86.57;80.97;;;0.80;98.90;;;;;;5112557;28;21004;-74
2023/12/03 01:08:10;;;;;;;82.87;76.77;;;0.80;99.30;;;;;;5095319;28;20454;-70
2023/12/03 01:10:37;;;;;;;74.23;68.43;;;0.80;99.10;;;;;;5107407;28;20528;-71
2023/12/03 01:13:04;;;;;;;66.67;60.90;;;0.80;98.30;;;;;;5096313;28;20442;-70
2023/12/03 01:15:32;;;;;;;63.10;57.30;;;0.80;98.30;;;;;;5112326;28;20450;-70
2023/12/03 01:17:59;;;;;;;53.80;48.50;;;0.80;97.80;;;;;;5103972;28;20533;-70
2023/12/03 01:20:26;;;;;;;58.67;52.77;;;0.70;97.70;;;;;;5100682;28;20787;-71
2023/12/03 01:22:54;;;;;;;56.40;51.20;;;0.70;98.70;;;;;;5107018;28;20537;-70
2023/12/03 01:25:21;;;;;;;51.90;46.90;;;0.70;98.80;;;;;;5094694;28;20464;-70
2023/12/03 01:27:48;;;;;;;53.97;48.93;;;0.70;97.70;;;;;;5100484;28;20467;-71
2023/12/03 01:30:15;;;;;;;53.50;47.33;;;0.80;97.80;;;;;;5113420;28;20445;-71
2023/12/03 01:32:43;;;;;;;55.00;50.70;;;0.80;97.80;;;;;;5096858;28;20951;-70
2023/12/03 01:35:10;;;;;;;55.90;50.70;;;0.80;97.80;;;;;;5111507;28;20479;-70
2023/12/03 01:37:37;;;;;;;54.30;49.37;;;0.80;97.80;;;;;;5096324;28;21076;-70
2023/12/03 01:40:05;;;;;;;53.57;48.17;;;0.80;97.70;;;;;;5094619;28;20442;-71
2023/12/03 01:42:34;;;;;;;50.37;45.53;;;0.80;97.70;;;;;;5105214;28;20887;-70
2023/12/03 01:45:01;;;;;;;48.00;42.73;;;0.80;97.70;;;;;;5110156;28;20913;-70
2023/12/03 01:47:28;;;;;;;45.93;41.03;;;0.70;97.70;;;;;;5106287;28;20468;-71
2023/12/03 01:50:02;;;;;;;51.67;46.87;;;0.70;97.70;;;;;;5102360;28;20478;-70
2023/12/03 01:52:29;;;;;;;51.33;46.23;;;0.70;97.70;;;;;;5103640;28;20940;-70
2023/12/03 01:54:58;;;;;;;47.87;43.47;;;0.70;97.70;;;;;;5096034;28;20469;-71
2023/12/03 01:57:25;;;;;;;48.17;43.60;;;0.70;97.70;;;;;;5092335;28;20529;-70
2023/12/03 01:59:52;;;;;;;52.97;48.20;;;0.70;98.00;;;;;;5098204;28;20452;-71
2023/12/03 02:02:19;;;;;;;44.97;40.10;;;0.70;97.70;;;;;;5106116;28;20453;-71
2023/12/03 02:04:46;;;;;;;49.33;44.37;;;0.70;97.70;;;;;;5093490;28;20471;-71
2023/12/03 02:07:14;;;;;;;45.50;41.23;;;0.70;97.70;;;;;;5101332;28;20849;-71
2023/12/03 02:09:42;;;;;;;48.03;43.00;;;0.70;97.70;;;;;;5111993;28;20445;-71
2023/12/03 02:12:09;;;;;;;48.27;43.80;;;0.70;97.70;;;;;;5101980;28;20813;-71
2023/12/03 02:14:37;;;;;;;46.20;41.90;;;0.70;97.70;;;;;;5104678;28;20514;-70
2023/12/03 02:17:04;;;;;;;47.60;42.87;;;0.70;97.70;;;;;;5102995;28;20443;-70
2023/12/03 02:19:31;;;;;;;47.67;43.57;;;0.70;97.70;;;;;;5091907;28;20445;-70
2023/12/03 02:21:58;;;;;;;52.97;48.40;;;0.70;97.70;;;;;;5093258;28;20474;-70
2023/12/03 02:24:26;;;;;;;54.87;49.10;;;0.70;98.30;;;;;;5098943;28;20462;-71
2023/12/03 02:26:53;;;;;;;53.30;48.53;;;0.70;98.70;;;;;;5092739;28;20469;-71
2023/12/03 02:29:20;;;;;;;58.17;53.33;;;0.60;98.70;;;;;;5095576;28;20510;-70
2023/12/03 02:31:47;;;;;;;60.37;55.37;;;0.60;99.50;;;;;;5092420;28;20441;-71
2023/12/03 02:34:14;;;;;;;68.97;63.77;;;0.50;99.90;;;;;;5100615;28;20456;-71
2023/12/03 02:36:41;;;;;;;81.03;74.93;;;0.50;99.90;;;;;;5105664;28;21001;-70
2023/12/03 02:39:08;;;;;;;90.80;84.87;;;0.40;99.90;;;;;;5091609;28;20542;-71
2023/12/03 02:41:36;;;;;;;91.37;85.17;;;0.40;99.90;;;;;;5096101;28;20474;-70
2023/12/03 02:44:03;;;;;;;92.13;85.87;;;0.30;99.90;;;;;;5104381;28;20473;-70
2023/12/03 02:46:30;;;;;;;115.70;109.10;;;0.20;99.90;;;;;;5091794;28;20525;-71
2023/12/03 02:48:57;;;;;;;128.67;121.67;;;0.20;99.90;;;;;;5091743;28;20532;-70
2023/12/03 02:51:24;;;;;;;126.60;119.67;;;0.10;99.90;;;;;;5103841;28;20487;-70
2023/12/03 02:53:51;;;;;;;141.23;133.83;;;0.10;99.90;;;;;;5094658;28;20818;-71
2023/12/03 02:56:18;;;;;;;166.83;158.60;;;0.00;99.90;;;;;;5108579;28;20811;-70
2023/12/03 02:58:46;;;;;;;158.00;150.00;;;0.10;99.90;;;;;;5091468;28;20449;-70
2023/12/03 03:01:13;;;;;;;202.10;192.33;;;0.20;99.90;;;;;;5101921;28;20448;-70
2023/12/03 03:03:40;;;;;;;211.83;202.53;;;-0.10;99.90;;;;;;5109365;28;20445;-71
2023/12/03 03:06:08;;;;;;;235.03;224.93;;;-0.10;99.90;;;;;;5106586;28;20474;-71
2023/12/03 03:08:35;;;;;;;272.10;260.70;;;-0.20;99.90;;;;;;5109894;28;20868;-70
2023/12/03 03:11:02;;;;;;;289.73;278.13;;;-0.20;99.90;;;;;;5107266;28;20483;-71
2023/12/03 03:13:29;;;;;;;339.58;324.83;;;-0.20;99.90;;;;;;5101810;28;20499;-70
2023/12/03 03:15:58;;;;;;;328.00;314.10;;;-0.10;99.90;;;;;;5091868;28;20184;-70
2023/12/03 03:18:24;;;;;;;329.30;315.63;;;0.00;99.90;;;;;;5091381;28;20456;-70
2023/12/03 03:20:51;;;;;;;331.47;317.27;;;0.00;99.90;;;;;;5102249;28;20444;-70
2023/12/03 03:23:18;;;;;;;313.73;300.27;;;0.10;99.90;;;;;;5097935;28;20891;-70
2023/12/03 03:25:45;;;;;;;308.47;295.83;;;0.10;99.90;;;;;;5104955;28;20623;-70
2023/12/03 03:28:12;;;;;;;300.97;288.33;;;0.20;99.90;;;;;;5111531;28;20621;-71
2023/12/03 03:30:39;;;;;;;277.30;265.43;;;0.20;99.90;;;;;;5102489;28;20442;-70
2023/12/03 03:33:07;;;;;;;271.67;260.90;;;0.20;99.90;;;;;;5091524;28;20453;-70
2023/12/03 03:35:34;;;;;;;280.60;268.87;;;0.20;99.90;;;;;;5101991;28;20529;-70
2023/12/03 03:38:01;;;;;;;276.88;265.63;;;0.30;99.90;;;;;;5097234;28;20481;-70
2023/12/03 03:40:28;;;;;;;255.97;245.17;;;0.30;99.90;;;;;;5101216;28;20698;-70
2023/12/03 03:42:55;;;;;;;244.67;234.53;;;0.30;99.90;;;;;;5104536;28;20536;-70
2023/12/03 03:45:22;;;;;;;228.23;218.13;;;0.30;99.90;;;;;;5093161;28;20843;-70
2023/12/03 03:47:49;;;;;;;207.93;198.73;;;0.30;99.90;;;;;;5102736;28;20529;-70
2023/12/03 03:50:17;;;;;;;176.50;168.03;;;0.30;99.90;;;;;;5094584;28;20482;-70
2023/12/03 03:52:44;;;;;;;165.80;157.57;;;0.40;99.90;;;;;;5104930;28;20447;-70
2023/12/03 03:55:11;;;;;;;122.47;116.17;;;0.40;99.90;;;;;;5096639;28;20894;-70
2023/12/03 03:57:38;;;;;;;90.73;85.33;;;0.40;99.90;;;;;;5114659;28;20543;-71
2023/12/03 04:00:06;;;;;;;97.73;91.97;;;0.40;99.90;;;;;;5097426;28;20445;-70
2023/12/03 04:02:33;;;;;;;82.93;76.77;;;0.40;99.90;;;;;;5112957;28;21095;-70
2023/12/03 04:05:00;;;;;;;82.27;77.07;;;0.40;99.90;;;;;;5108456;28;20551;-70
2023/12/03 04:07:28;;;;;;;102.00;96.17;;;0.40;99.90;;;;;;5099842;28;20533;-70
2023/12/03 04:09:55;;;;;;;91.23;85.87;;;0.40;99.90;;;;;;5098004;28;21015;-70
2023/12/03 04:12:22;;;;;;;89.37;84.07;;;0.40;99.90;;;;;;5103787;28;20451;-70
2023/12/03 04:14:49;;;;;;;92.40;86.83;;;0.40;99.90;;;;;;5104528;28;20464;-70
2023/12/03 04:17:17;;;;;;;101.83;95.90;;;0.40;99.90;;;;;;5114398;28;20505;-71
2023/12/03 04:19:44;;;;;;;116.83;110.77;;;0.50;99.90;;;;;;5098477;28;20453;-70
2023/12/03 04:22:11;;;;;;;128.17;121.57;;;0.50;99.90;;;;;;5110190;28;20447;-71
2023/12/03 04:24:39;;;;;;;145.97;138.83;;;0.50;99.90;;;;;;5103188;28;20466;-71
2023/12/03 04:27:06;;;;;;;158.73;151.10;;;0.50;99.90;;;;;;5110069;28;20536;-71
2023/12/03 04:29:33;;;;;;;146.53;139.53;;;0.50;99.90;;;;;;5111125;28;20441;-71
2023/12/03 04:32:00;;;;;;;165.43;156.47;;;0.60;99.90;;;;;;5094112;28;20451;-71
2023/12/03 04:34:27;;;;;;;161.77;154.57;;;0.60;99.90;;;;;;5105029;28;20453;-71
2023/12/03 04:36:54;;;;;;;159.83;152.63;;;0.60;99.90;;;;;;5110834;28;20446;-71
2023/12/03 04:39:21;;;;;;;158.17;150.17;;;0.60;99.90;;;;;;5114309;28;20497;-71
2023/12/03 04:41:49;;;;;;;176.10;168.33;;;0.60;99.90;;;;;;5109880;28;20446;-71
2023/12/03 04:44:16;;;;;;;162.97;155.67;;;0.60;99.90;;;;;;5113277;28;20535;-71
2023/12/03 04:46:43;;;;;;;162.73;155.57;;;0.70;99.90;;;;;;5103324;28;20503;-70
2023/12/03 04:49:10;;;;;;;146.43;139.83;;;0.70;99.90;;;;;;5097583;28;20452;-71
2023/12/03 04:51:37;;;;;;;113.20;106.70;;;0.70;99.90;;;;;;5113009;28;20480;-70
2023/12/03 04:54:04;;;;;;;95.97;90.57;;;0.70;99.90;;;;;;5113906;28;20491;-71
2023/12/03 04:56:31;;;;;;;92.03;87.10;;;0.70;99.90;;;;;;5113814;28;20449;-71
2023/12/03 04:58:58;;;;;;;97.33;92.27;;;0.70;99.90;;;;;;5112874;28;20449;-71
2023/12/03 05:01:25;;;;;;;95.97;90.80;;;0.70;99.90;;;;;;5113582;28;20456;-71
2023/12/03 05:03:52;;;;;;;88.20;83.40;;;0.70;99.90;;;;;;5114066;28;20539;-71
2023/12/03 05:06:19;;;;;;;94.90;89.27;;;0.70;99.90;;;;;;5113966;28;20476;-71
2023/12/03 05:08:46;;;;;;;85.03;80.17;;;0.70;99.90;;;;;;5113019;28;20470;-71
2023/12/03 05:11:13;;;;;;;81.90;76.50;;;0.60;99.90;;;;;;5113384;28;20536;-71
2023/12/03 05:13:40;;;;;;;74.83;70.70;;;0.60;99.90;;;;;;5096715;28;20447;-71
2023/12/03 05:16:09;;;;;;;72.27;67.90;;;0.50;99.90;;;;;;5093071;28;20442;-71
2023/12/03 05:18:36;;;;;;;73.85;69.55;;;0.40;99.90;;;;;;5105091;28;20863;-71
2023/12/03 05:21:04;;;;;;;83.10;78.20;;;0.30;99.90;;;;;;5097910;28;20202;-70
2023/12/03 05:23:31;;;;;;;83.10;78.33;;;0.30;99.90;;;;;;5094894;28;20529;-71
2023/12/03 05:25:58;;;;;;;98.00;93.03;;;0.30;99.90;;;;;;5113165;28;21006;-71
2023/12/03 05:28:25;;;;;;;109.67;104.47;;;0.30;99.90;;;;;;5113201;28;20452;-71
2023/12/03 05:30:52;;;;;;;116.97;111.47;;;0.30;99.90;;;;;;5112465;28;20444;-70
2023/12/03 05:33:20;;;;;;;114.63;108.87;;;0.30;99.90;;;;;;5108184;28;20534;-71
2023/12/03 05:35:47;;;;;;;115.37;108.87;;;0.20;99.90;;;;;;5112342;28;21004;-71
2023/12/03 05:38:14;;;;;;;117.27;111.43;;;0.10;99.90;;;;;;5113127;28;20455;-71
2023/12/03 05:40:41;;;;;;;105.90;100.87;;;0.00;99.90;;;;;;5112749;28;20470;-70
2023/12/03 05:43:08;;;;;;;121.77;115.47;;;-0.10;99.90;;;;;;5113010;28;20453;-71
2023/12/03 05:45:34;;;;;;;143.93;137.27;;;-0.20;99.90;;;;;;5111885;28;20472;-71
2023/12/03 05:48:01;;;;;;;173.87;166.40;;;-0.40;99.90;;;;;;5113101;28;20450;-70
2023/12/03 05:50:30;;;;;;;188.27;180.07;;;-0.50;99.90;;;;;;5112623;28;20471;-70
2023/12/03 05:52:57;;;;;;;194.80;187.00;;;-0.50;99.90;;;;;;5112189;28;20535;-70
2023/12/03 05:55:24;;;;;;;181.87;173.87;;;-0.50;99.90;;;;;;5112613;28;20584;-70
2023/12/03 05:57:50;;;;;;;124.43;118.77;;;-0.60;99.90;;;;;;5112894;28;20920;-70
2023/12/03 06:00:19;;;;;;;112.57;106.43;;;-0.60;99.90;;;;;;5112505;28;20449;-70
2023/12/03 06:02:46;;;;;;;95.63;90.67;;;-0.60;99.90;;;;;;5112027;28;20904;-70
2023/12/03 06:05:13;;;;;;;99.20;94.20;;;-0.60;99.90;;;;;;5113168;28;20567;-70
2023/12/03 06:07:41;;;;;;;98.00;93.10;;;-0.60;99.90;;;;;;5112814;28;20448;-70
2023/12/03 06:10:08;;;;;;;102.13;97.20;;;-0.70;99.90;;;;;;5112632;28;20445;-70
2023/12/03 06:12:35;;;;;;;119.27;113.10;;;-0.70;99.90;;;;;;5111633;28;20932;-70
2023/12/03 06:15:03;;;;;;;123.37;116.70;;;-0.70;99.90;;;;;;5113062;28;20476;-71
2023/12/03 06:17:30;;;;;;;128.63;122.50;;;-0.80;99.90;;;;;;5112934;28;20449;-71
2023/12/03 06:19:57;;;;;;;164.63;156.53;;;-0.80;99.90;;;;;;5113199;28;20549;-71
2023/12/03 06:22:24;;;;;;;226.50;217.27;;;-0.90;99.90;;;;;;5112547;28;20482;-71
2023/12/03 06:24:52;;;;;;;241.87;231.93;;;-0.90;99.90;;;;;;5111157;28;20474;-71
2023/12/03 06:27:19;;;;;;;282.20;271.20;;;-1.00;99.90;;;;;;5101766;28;20997;-70
2023/12/03 06:29:46;;;;;;;371.03;356.60;;;-1.10;99.90;;;;;;5099450;28;20498;-70
2023/12/03 06:32:13;;;;;;;421.13;403.47;;;-1.20;99.90;;;;;;5100369;28;20446;-71
2023/12/03 06:34:40;;;;;;;529.17;503.93;;;-1.30;99.90;;;;;;5106637;28;21008;-71
2023/12/03 06:37:08;;;;;;;574.15;546.80;;;-1.40;99.90;;;;;;5109264;28;20480;-70
2023/12/03 06:39:35;;;;;;;658.20;624.77;;;-1.50;99.90;;;;;;5109686;28;20659;-71
2023/12/03 06:42:03;;;;;;;660.27;626.27;;;-1.60;99.90;;;;;;5112205;28;21132;-71
2023/12/03 06:44:33;;;;;;;682.10;645.90;;;-1.60;99.90;;;;;;5111551;28;20445;-70
2023/12/03 06:47:00;;;;;;;700.70;661.90;;;-1.70;99.90;;;;;;5097981;28;20547;-71
2023/12/03 06:49:27;;;;;;;772.35;727.33;;;-1.70;99.90;;;;;;5111676;28;20531;-71
2023/12/03 06:51:54;;;;;;;799.13;751.58;;;-1.50;99.90;;;;;;5105600;28;20244;-71
2023/12/03 06:54:21;;;;;;;809.93;760.37;;;-1.60;99.90;;;;;;5091914;28;20203;-71
2023/12/03 06:56:48;;;;;;;826.10;774.33;;;-1.60;99.90;;;;;;5092076;28;20442;-70
2023/12/03 06:59:16;;;;;;;819.70;769.40;;;-1.60;99.90;;;;;;5093237;28;20192;-71
2023/12/03 07:01:43;;;;;;;855.03;800.37;;;-1.60;99.90;;;;;;5091300;28;20272;-71
2023/12/03 07:04:10;;;;;;;836.20;784.17;;;-1.50;99.90;;;;;;5092939;28;20995;-71
2023/12/03 07:06:37;;;;;;;829.43;778.00;;;-1.60;99.90;;;;;;5092867;28;20512;-71
2023/12/03 07:09:04;;;;;;;823.17;771.97;;;-1.50;99.90;;;;;;5100531;28;20446;-71
2023/12/03 07:11:31;;;;;;;836.17;784.00;;;-1.40;99.90;;;;;;5094188;28;20445;-74
2023/12/03 07:13:57;;;;;;;830.23;779.03;;;-1.20;99.90;;;;;;5092133;28;20191;-74
2023/12/03 07:16:26;;;;;;;810.63;760.43;;;-1.10;99.90;;;;;;5109214;28;20441;-74
2023/12/03 07:18:53;;;;;;;790.33;740.27;;;-0.90;99.90;;;;;;5101293;28;20448;-74
2023/12/03 07:21:19;;;;;;;775.03;725.92;;;-0.90;99.90;;;;;;5100779;28;20442;-74
2023/12/03 07:23:46;;;;;;;753.40;705.30;;;-0.80;99.90;;;;;;5106945;28;20202;-74
2023/12/03 07:26:13;;;;;;;724.87;678.57;;;-0.70;99.90;;;;;;5103843;28;20469;-74
2023/12/03 07:28:42;;;;;;;698.97;654.90;;;-0.70;99.90;;;;;;5100662;28;20441;-74
2023/12/03 07:31:10;;;;;;;696.23;653.53;;;-0.70;99.90;;;;;;5102580;28;20488;-74
2023/12/03 07:33:38;;;;;;;695.93;656.77;;;-0.70;99.90;;;;;;5099288;28;20453;-74
2023/12/03 07:36:05;;;;;;;674.53;636.30;;;-0.70;99.90;;;;;;5097425;28;20541;-74
2023/12/03 07:38:32;;;;;;;656.33;619.80;;;-0.70;99.90;;;;;;5106608;28;20976;-74
2023/12/03 07:40:59;;;;;;;653.47;616.27;;;-0.70;99.90;;;;;;5105233;28;20651;-73
2023/12/03 07:43:26;;;;;;;669.20;632.00;;;-0.80;99.90;;;;;;5104696;28;20470;-73
2023/12/03 07:45:53;;;;;;;669.40;632.15;;;-0.90;99.90;;;;;;5104409;28;20473;-74
2023/12/03 07:48:20;;;;;;;685.17;647.20;;;-1.00;99.90;;;;;;5110125;28;20247;-73
2023/12/03 07:50:48;;;;;;;679.75;640.05;;;-1.00;99.90;;;;;;5114691;28;20531;-74
2023/12/03 07:53:15;;;;;;;680.22;642.25;;;-1.00;99.90;;;;;;5106959;28;20183;-73
2023/12/03 07:55:42;;;;;;;694.60;655.67;;;-1.10;99.90;;;;;;5113186;28;20223;-73
2023/12/03 07:58:09;;;;;;;705.27;665.47;;;-1.00;99.90;;;;;;5115611;28;20544;-74
2023/12/03 08:00:37;;;;;;;699.63;659.57;;;-0.90;99.90;;;;;;5108179;28;20446;-74
2023/12/03 08:03:04;;;;;;;667.40;630.77;;;-0.60;99.90;;;;;;5109756;28;20444;-74
2023/12/03 08:05:31;;;;;;;583.27;553.37;;;-0.60;99.90;;;;;;5115656;28;20567;-74
2023/12/03 08:08:00;;;;;;;508.43;483.63;;;-0.50;99.90;;;;;;5111227;28;20532;-74
2023/12/03 08:10:27;;;;;;;494.97;470.77;;;-0.40;99.90;;;;;;5099934;28;20441;-73
2023/12/03 08:12:54;;;;;;;437.00;416.73;;;-0.30;99.90;;;;;;5105201;28;20452;-73
2023/12/03 08:15:21;;;;;;;390.80;373.40;;;-0.20;99.90;;;;;;5105077;28;20528;-74
2023/12/03 08:17:48;;;;;;;417.90;398.60;;;-0.10;99.90;;;;;;5104951;28;20477;-74
2023/12/03 08:20:15;;;;;;;394.03;376.60;;;0.00;99.90;;;;;;5111650;28;20440;-74
2023/12/03 08:22:41;;;;;;;382.00;365.10;;;0.10;99.90;;;;;;5102449;28;20442;-74
2023/12/03 08:25:10;;;;;;;368.53;352.23;;;0.20;99.90;;;;;;5094164;28;20548;-74
2023/12/03 08:27:37;;;;;;;348.77;333.53;;;0.30;99.90;;;;;;5102892;28;20480;-74
2023/12/03 08:30:05;;;;;;;331.10;316.53;;;0.30;99.90;;;;;;5114248;28;20451;-74
2023/12/03 08:32:31;;;;;;;308.30;294.67;;;0.40;99.90;;;;;;5105677;28;20448;-74
2023/12/03 08:34:58;;;;;;;295.03;282.93;;;0.50;99.90;;;;;;5093332;28;20446;-73
2023/12/03 08:37:25;;;;;;;249.00;238.10;;;0.50;99.90;;;;;;5095868;28;20554;-74
2023/12/03 08:39:52;;;;;;;221.40;211.77;;;0.60;99.90;;;;;;5093811;28;20445;-74
2023/12/03 08:42:21;;;;;;;193.63;185.07;;;0.60;99.90;;;;;;5093780;28;20513;-74
2023/12/03 08:44:48;;;;;;;166.87;159.47;;;0.70;99.90;;;;;;5098599;28;20237;-74
2023/12/03 08:47:15;;;;;;;144.80;137.27;;;0.70;99.90;;;;;;5112732;28;20483;-74
2023/12/03 08:49:42;;;;;;;118.00;112.27;;;0.70;99.90;;;;;;5114762;28;20981;-74
2023/12/03 08:52:10;;;;;;;66.88;61.95;;;0.70;99.90;;;;;;5105139;28;20529;-73
2023/12/03 08:54:37;;;;;;;36.17;32.35;;;0.70;99.90;;;;;;5103571;28;20937;-73
2023/12/03 08:57:04;;;;;;;34.50;25.88;;;0.60;99.90;;;;;;5100574;28;20441;-73
2023/12/03 08:59:32;;;;;;;30.33;24.10;;;0.60;99.90;;;;;;5114164;28;20540;-74
2023/12/03 09:01:59;;;;;;;31.10;27.70;;;0.60;99.90;;;;;;5095216;28;20862;-71
2023/12/03 09:04:26;;;;;;;31.23;26.70;;;0.60;99.90;;;;;;5113896;28;20445;-71
2023/12/03 09:06:53;;;;;;;32.63;26.43;;;0.60;99.90;;;;;;5113636;28;20469;-73
2023/12/03 09:09:20;;;;;;;33.27;26.87;;;0.60;99.90;;;;;;5102507;28;20449;-73
2023/12/03 09:11:47;;;;;;;31.73;25.37;;;0.60;99.90;;;;;;5099606;28;20457;-73
2023/12/03 09:14:13;;;;;;;32.00;27.20;;;0.60;99.90;;;;;;5108370;28;20445;-73
2023/12/03 09:16:42;;;;;;;42.27;27.17;;;0.70;99.90;;;;;;5113727;28;20447;-73
2023/12/03 09:19:09;;;;;;;34.00;25.73;;;0.70;99.90;;;;;;5113783;28;20605;-73
2023/12/03 09:21:35;;;;;;;38.37;22.80;;;0.70;99.90;;;;;;5113392;28;20449;-73
2023/12/03 09:24:04;;;;;;;35.23;23.50;;;0.80;99.90;;;;;;5114051;28;20487;-73
2023/12/03 09:26:31;;;;;;;32.17;22.50;;;0.90;99.30;;;;;;5113751;28;20557;-73
2023/12/03 09:28:57;;;;;;;23.67;17.20;;;1.00;98.90;;;;;;5114049;28;20453;-73
2023/12/03 09:31:24;;;;;;;26.40;18.23;;;1.00;95.60;;;;;;5113778;28;20532;-73
2023/12/03 09:33:53;;;;;;;24.00;16.87;;;1.20;95.30;;;;;;5113636;28;20461;-73
2023/12/03 09:36:19;;;;;;;29.00;17.10;;;1.20;94.70;;;;;;5110332;28;20437;-74
2023/12/03 09:38:46;;;;;;;34.80;17.90;;;1.30;94.70;;;;;;5093052;28;20541;-73
2023/12/03 09:41:14;;;;;;;38.93;17.87;;;1.40;94.70;;;;;;5092711;28;20961;-74
2023/12/03 09:43:46;;;;;;;30.63;16.57;;;1.50;94.80;;;;;;5093072;28;20478;-74
2023/12/03 09:46:13;;;;;;;19.47;13.53;;;1.40;94.70;;;;;;5092004;28;20565;-74
2023/12/03 09:48:43;;;;;;;38.23;13.90;;;1.30;93.50;;;;;;5092702;28;20493;-74
2023/12/03 09:51:13;;;;;;;25.20;15.27;;;1.40;94.70;;;;;;5092543;28;20445;-74
2023/12/03 09:53:45;;;;;;;29.70;15.67;;;1.40;93.50;;;;;;5093067;28;20539;-74
2023/12/03 09:56:13;;;;;;;24.60;13.63;;;1.40;94.70;;;;;;5092716;28;20447;-74
2023/12/03 09:58:42;;;;;;;15.77;9.80;;;1.40;93.00;;;;;;5097204;28;20447;-74
2023/12/03 10:01:09;;;;;;;24.70;13.00;;;1.50;91.50;;;;;;5092237;28;20848;-74
2023/12/03 10:03:36;;;;;;;29.70;16.70;;;1.50;91.50;;;;;;5099421;28;20542;-74
2023/12/03 10:06:04;;;;;;;23.87;14.30;;;1.60;92.90;;;;;;5093073;28;20450;-74
2023/12/03 10:08:33;;;;;;;23.70;12.40;;;1.70;93.80;;;;;;5092666;28;20834;-74
2023/12/03 10:11:02;;;;;;;22.70;12.40;;;1.80;91.60;;;;;;5092586;28;20452;-74
2023/12/03 10:13:31;;;;;;;23.70;12.47;;;1.90;91.60;;;;;;5099232;28;20525;-74
2023/12/03 10:15:58;;;;;;;26.60;13.70;;;2.00;91.50;;;;;;5112695;28;20451;-74
2023/12/03 10:18:25;;;;;;;27.40;12.23;;;2.00;90.50;;;;;;5112551;28;20451;-74
2023/12/03 10:21:05;;;;;;;22.80;12.10;;;2.00;89.40;;;;;;5112745;28;20541;-74
2023/12/03 10:23:34;;;;;;;21.87;11.40;;;2.00;90.90;;;;;;5112672;28;20454;-74
2023/12/03 10:26:10;;;;;;;18.27;11.30;;;2.10;90.00;;;;;;5112201;28;20482;-74
2023/12/03 10:28:37;;;;;;;27.40;12.50;;;2.10;89.20;;;;;;5112471;28;20477;-74
2023/12/03 10:31:04;;;;;;;24.55;12.60;;;2.10;90.20;;;;;;5111828;28;20516;-74
2023/12/03 10:33:31;;;;;;;27.13;14.88;;;2.10;91.70;;;;;;5112166;28;20478;-74
2023/12/03 10:36:02;;;;;;;21.73;12.40;;;2.10;88.60;;;;;;5112790;28;20301;-74
2023/12/03 10:38:36;;;;;;;22.80;12.50;;;2.20;87.80;;;;;;5112536;28;20448;-74
2023/12/03 10:41:04;;;;;;;18.77;11.13;;;2.40;86.80;;;;;;5112310;28;20825;-74
2023/12/03 10:43:31;;;;;;;21.63;12.48;;;2.40;86.70;;;;;;5109887;28;20845;-72
2023/12/03 10:45:58;;;;;;;19.50;11.47;;;2.40;86.80;;;;;;5112554;28;20213;-73
2023/12/03 10:48:30;;;;;;;20.67;11.60;;;2.50;86.80;;;;;;5111860;28;20539;-72
2023/12/03 10:51:03;;;;;;;24.93;10.60;;;2.50;86.80;;;;;;5111643;28;20787;-72
2023/12/03 10:53:34;;;;;;;19.53;10.37;;;2.60;86.90;;;;;;5096315;28;20479;-72
2023/12/03 10:56:03;;;;;;;20.70;11.27;;;2.70;87.00;;;;;;5091862;28;20537;-71
2023/12/03 10:58:31;;;;;;;25.30;11.03;;;2.80;87.10;;;;;;5091609;28;20437;-72
2023/12/03 11:01:02;;;;;;;19.17;9.90;;;2.90;87.10;;;;;;5091445;28;20453;-72
2023/12/03 11:03:40;;;;;;;22.13;10.40;;;3.00;83.80;;;;;;5091756;28;20529;-72
2023/12/03 11:06:09;;;;;;;18.67;9.90;;;3.00;81.80;;;;;;5091558;28;20943;-72
2023/12/03 11:08:38;;;;;;;21.13;12.07;;;3.00;82.00;;;;;;5091647;28;20820;-72
2023/12/03 11:11:08;;;;;;;20.20;10.73;;;3.00;80.70;;;;;;5091418;28;20825;-72
2023/12/03 11:13:36;;;;;;;23.10;10.87;;;3.00;79.70;;;;;;5091471;28;20451;-72
2023/12/03 11:16:04;;;;;;;25.67;10.90;;;3.00;84.00;;;;;;5091215;28;20543;-72
2023/12/03 11:18:33;;;;;;;18.30;10.23;;;3.00;81.70;;;;;;5091311;28;20995;-72
2023/12/03 11:21:10;;;;;;;16.43;10.90;;;3.10;79.80;;;;;;5088473;28;20515;-72
2023/12/03 11:23:53;;;;;;;19.57;10.40;;;3.10;79.80;;;;;;5091175;28;20452;-72
2023/12/03 11:26:20;;;;;;;18.43;10.37;;;3.30;80.00;;;;;;5100609;28;20984;-72
2023/12/03 11:28:52;;;;;;;19.30;10.07;;;3.80;79.10;;;;;;5110807;28;20812;-72
2023/12/03 11:31:19;;;;;;;19.93;11.00;;;4.20;73.00;;;;;;5098591;28;20447;-72
2023/12/03 11:33:51;;;;;;;21.00;10.97;;;4.60;68.40;;;;;;5104709;28;20461;-72
2023/12/03 11:36:18;;;;;;;18.57;10.60;;;5.10;65.90;;;;;;5110187;28;20455;-72
2023/12/03 11:38:48;;;;;;;15.83;9.60;;;5.60;58.20;;;;;;5091247;28;20447;-72
2023/12/03 11:41:15;;;;;;;18.77;9.80;;;5.70;58.30;;;;;;5090826;28;20454;-72
2023/12/03 11:43:42;;;;;;;17.23;9.90;;;6.10;52.00;;;;;;5103711;28;20527;-72
2023/12/03 11:46:10;;;;;;;17.60;9.60;;;6.20;55.00;;;;;;5090927;28;20946;-72
2023/12/03 11:48:38;;;;;;;21.63;11.23;;;5.80;49.90;;;;;;5099137;28;20473;-72
2023/12/03 11:51:08;;;;;;;18.90;10.53;;;5.60;53.20;;;;;;5111262;28;20445;-72
2023/12/03 11:53:53;;;;;;;16.73;10.30;;;5.30;57.80;;;;;;5111668;28;20441;-72
2023/12/03 11:56:22;;;;;;;17.93;9.30;;;5.10;57.70;;;;;;5111420;28;20449;-72
2023/12/03 11:58:50;;;;;;;19.10;10.60;;;4.80;57.40;;;;;;5111472;28;20457;-72
2023/12/03 12:01:16;;;;;;;17.30;9.57;;;4.50;57.20;;;;;;5098671;28;20447;-72
2023/12/03 12:03:43;;;;;;;14.90;9.63;;;4.20;57.00;;;;;;5090356;28;20978;-72
2023/12/03 12:06:11;;;;;;;17.00;8.83;;;3.90;56.80;;;;;;5090696;28;20495;-72
2023/12/03 12:08:38;;;;;;;19.27;10.33;;;3.90;56.70;;;;;;5091615;28;20514;-72
2023/12/03 12:11:05;;;;;;;21.80;10.27;;;4.10;57.00;;;;;;5094371;28;20500;-72
2023/12/03 12:13:34;;;;;;;22.87;10.30;;;4.30;57.20;;;;;;5095748;28;20437;-72
2023/12/03 12:16:01;;;;;;;17.33;9.43;;;4.30;57.10;;;;;;5094458;28;20528;-72
2023/12/03 12:18:28;;;;;;;19.00;10.43;;;4.30;57.10;;;;;;5114373;28;20482;-72
2023/12/03 12:21:06;;;;;;;17.80;10.10;;;4.20;57.00;;;;;;5114868;28;20808;-72
2023/12/03 12:23:33;;;;;;;17.40;10.50;;;4.10;59.60;;;;;;5114852;28;20467;-72
2023/12/03 12:26:00;;;;;;;21.67;10.93;;;4.00;56.80;;;;;;5115221;28;20449;-72
2023/12/03 12:28:27;;;;;;;14.63;8.60;;;4.00;56.80;;;;;;5115239;28;20519;-72